METAR Analyzer

一覧表示

Hello, Guest. (Login)

KJFK/JFK  -  ジョン・F・ケネディ

観測日時
2024-07-12 23:51 (UTC) (68分前)
気温
23.9
露点
22.2
湿数
1.7
相対湿度
90.2%
QNH
1022.0hPa
推定現地気圧
1021.5hPa
推定海面気圧
1022.0hPa
体感温度
18.3
(無風時)
24.6
HI
24.7
気温前日比
-0.5
体感温度前日比
+1
HI前日比
-0.1
水平視程
>10SM
鉛直視程
データなし
雲底高度
23000ft AGL
V/I
VMC (VFR)
RVR
No RVR data
卓越風
8kt from 170°
ガスト
No gust
降水
報告なし
その他の天気
報告なし
少しの雲 @ 6000ft AGL / 散在する雲 @ 12000ft AGL / 隙間のある雲 @ 23000ft AGL

KJFK 122351Z 17008KT 10SM FEW060 SCT120 BKN230 24/22 A3018 RMK AO2 SLP219 60000 T02390222 10278 20239 53005 $

[PR]

KLGA/LGA  -  ラガーディア

観測日時
2024-07-12 23:51 (UTC) (68分前)
気温
26.7
露点
22.2
湿数
4.5
相対湿度
76.4%
QNH
1021.3hPa
推定現地気圧
1020.6hPa
推定海面気圧
1021.3hPa
体感温度
21.6
(無風時)
26.1
HI
28.8
気温前日比
-2.7
体感温度前日比
-1
HI前日比
-1.1
水平視程
>10SM
鉛直視程
データなし
雲底高度
12000ft AGL
V/I
VMC (VFR)
RVR
No RVR data
卓越風
7kt from 160°
ガスト
No gust
降水
報告なし
その他の天気
報告なし
散在する雲 @ 2300ft AGL / 散在する雲 @ 5000ft AGL / 隙間のある雲 @ 12000ft AGL / 隙間のある雲 @ 23000ft AGL

KLGA 122351Z 16007KT 10SM SCT023 SCT050 BKN120 BKN230 27/22 A3016 RMK AO2 RAE2259 SLP213 P0000 60000 T02670222 10300 20267 53010

[PR]

KEWR/EWR  -  ニューアーク・リバティー

観測日時
2024-07-12 23:51 (UTC) (68分前)
気温
27.2
露点
23.3
湿数
3.9
相対湿度
79.3%
QNH
1021.3hPa
推定現地気圧
1020.7hPa
推定海面気圧
1021.3hPa
体感温度
22.1
(無風時)
26.7
HI
30.1
気温前日比
-2.2
体感温度前日比
-0.3
HI前日比
-0.1
水平視程
>10SM
鉛直視程
データなし
雲底高度
12000ft AGL
V/I
VMC (VFR)
RVR
No RVR data
卓越風
8kt from 180°
ガスト
No gust
降水
報告なし
その他の天気
報告なし
少しの雲 @ 2500ft AGL / 散在する雲 @ 4000ft AGL / 隙間のある雲 @ 12000ft AGL / 隙間のある雲 @ 20000ft AGL

KEWR 122351Z 18008KT 10SM FEW025 SCT040 BKN120 BKN200 27/23 A3016 RMK AO2 SLP211 60000 T02720233 10294 20272 53009

[PR]

KIAD/IAD  -  ワシントン・ダレス

観測日時
2024-07-12 23:52 (UTC) (67分前)
気温
24.4
露点
22.8
湿数
1.6
相対湿度
90.8%
QNH
1021.7hPa
推定現地気圧
1010.3hPa
推定海面気圧
1021.4hPa
体感温度
21
(無風時)
25.1
HI
25.3
気温前日比
-5
体感温度前日比
-1.5
HI前日比
-4.6
水平視程
>10SM
鉛直視程
データなし
雲底高度
7000ft AGL
V/I
VMC (VFR)
RVR
No RVR data
卓越風
3kt from 290°
ガスト
No gust
降水
弱い雨 (降水強度: 0.3mm/h)
その他の天気
報告なし
少しの雲 @ 1200ft AGL / 散在する雲 @ 5000ft AGL / 隙間のある雲 @ 7000ft AGL / 隙間のある雲 @ 15000ft AGL / 全天を覆う雲 @ 20000ft AGL

KIAD 122352Z 29003KT 10SM -RA FEW012 SCT050 BKN070 BKN150 OVC200 24/23 A3017 RMK AO2 SLP215 P0001 60001 T02440228 10267 20244 53008

[PR]

KDTW/DTW  -  デトロイト・メトロポリタン・ウェイン・カウンティ

観測日時
2024-07-12 23:53 (UTC) (66分前)
気温
26.7
露点
17.8
湿数
8.9
相対湿度
58.2%
QNH
1020.0hPa
推定現地気圧
996.4hPa
推定海面気圧
1019.0hPa
体感温度
20.6
(無風時)
24.9
HI
27.6
気温前日比
+0.6
体感温度前日比
+0.4
HI前日比
+1.3
水平視程
>10SM
鉛直視程
データなし
雲底高度
No dense clouds
V/I
VMC (VFR)
RVR
No RVR data
卓越風
7kt from 180°
ガスト
No gust
降水
報告なし
その他の天気
報告なし
少しの雲 @ 6500ft AGL / 少しの雲 @ 23000ft AGL

KDTW 122353Z 18007KT 10SM FEW065 FEW230 27/18 A3012 RMK AO2 SLP196 T02670178 10283 20267 53000 $

[PR]

KDET/DET  -  コールマン・A・ヤング

観測日時
2024-07-12 23:53 (UTC) (66分前)
気温
27.2
露点
18.3
湿数
8.9
相対湿度
58.3%
QNH
1020.0hPa
推定現地気圧
997.1hPa
推定海面気圧
1018.9hPa
体感温度
21.4
(無風時)
25.3
HI
28.2
気温前日比
+1.1
体感温度前日比
+1.8
HI前日比
+2
水平視程
>10SM
鉛直視程
データなし
雲底高度
No dense clouds
V/I
VMC (VFR)
RVR
No RVR data
卓越風
6kt from 70°
ガスト
No gust
降水
報告なし
その他の天気
報告なし
目立った雲なし

KDET 122353Z 07006KT 10SM CLR 27/18 A3012 RMK AO2 SLP194 T02720183 10289 20272 55001

[PR]

KMCO/MCO  -  オーランド

観測日時
2024-07-12 23:53 (UTC) (66分前)
気温
28.9
露点
22.8
湿数
6.1
相対湿度
69.7%
QNH
1019.0hPa
推定現地気圧
1015.5hPa
推定海面気圧
1018.8hPa
体感温度
23.9
(無風時)
27.4
HI
32.5
気温前日比
-0.5
体感温度前日比
-1
HI前日比
-1.6
水平視程
>10SM
鉛直視程
データなし
雲底高度
30000ft AGL
V/I
VMC (VFR)
RVR
No RVR data
卓越風
7kt from 220°
ガスト
No gust
降水
報告なし
その他の天気
報告なし
散在する雲 @ 6500ft AGL / 散在する雲 @ 8000ft AGL / 隙間のある雲 @ 30000ft AGL

KMCO 122353Z 22007KT 10SM SCT065 SCT080 BKN300 29/23 A3009 RMK AO2 WSHFT 2240 SLP188 T02890228 10356 20289 53018

[PR]

KMIA/MIA  -  マイアミ

観測日時
2024-07-12 23:53 (UTC) (66分前)
気温
28.9
露点
22.2
湿数
6.7
相対湿度
67.2%
QNH
1020.7hPa
推定現地気圧
1020.3hPa
推定海面気圧
1020.6hPa
体感温度
24.8
(無風時)
27.2
HI
32
気温前日比
+2.8
体感温度前日比
+3.8
HI前日比
+5.2
水平視程
>10SM
鉛直視程
データなし
雲底高度
12000ft AGL
V/I
VMC (VFR)
RVR
No RVR data
卓越風
3kt from 220°
ガスト
No gust
降水
報告なし
その他の天気
報告なし
散在する雲 @ 9000ft AGL / 隙間のある雲 @ 12000ft AGL / 全天を覆う雲 @ 25000ft AGL

KMIA 122353Z 22003KT 10SM SCT090 BKN120 OVC250 29/22 A3014 RMK AO2 SLP208 T02890222 10322 20283 53018 $

[PR]

KFLL/FLL  -  フォートローダーデール・ハリウッド

観測日時
2024-07-12 23:53 (UTC) (66分前)
気温
30
露点
22.2
湿数
7.8
相対湿度
63.1%
QNH
1020.3hPa
推定現地気圧
1017.9hPa
推定海面気圧
1020.2hPa
体感温度
24.9
(無風時)
27.8
HI
33.5
気温前日比
+4.4
体感温度前日比
+3.4
HI前日比
+7.2
水平視程
>10SM
鉛直視程
データなし
雲底高度
16000ft AGL
V/I
VMC (VFR)
RVR
No RVR data
卓越風
6kt from 210°
ガスト
No gust
降水
報告なし
その他の天気
報告なし
少しの雲 @ 3000ft AGL / 隙間のある雲 @ 16000ft AGL / 全天を覆う雲 @ 25000ft AGL

KFLL 122353Z 21006KT 10SM FEW030 BKN160 OVC250 30/22 A3013 RMK AO2 SLP202 T03000222 10317 20300 53020 $

[PR]

KTPA/TPA  -  タンパ

観測日時
2024-07-12 23:53 (UTC) (66分前)
気温
28.3
露点
25
湿数
3.3
相対湿度
82.3%
QNH
1019.6hPa
推定現地気圧
1018.6hPa
推定海面気圧
1019.5hPa
体感温度
24.4
(無風時)
27.9
HI
33.3
気温前日比
-1.7
体感温度前日比
-1.5
HI前日比
-3.6
水平視程
>10SM
鉛直視程
データなし
雲底高度
25000ft AGL
V/I
VMC (VFR)
RVR
No RVR data
卓越風
5kt from 210°
ガスト
No gust
降水
報告なし
その他の天気
報告なし
少しの雲 @ 3500ft AGL / 散在する雲 @ 15000ft AGL / 隙間のある雲 @ 25000ft AGL

KTPA 122353Z 21005KT 10SM FEW035 SCT150 BKN250 28/25 A3011 RMK AO2 SLP195 60050 T02830250 10306 20250 53008

[PR]

KORD/ORD  -  シカゴ・オヘア

観測日時
2024-07-12 23:51 (UTC) (68分前)
気温
28.3
露点
16.7
湿数
11.6
相対湿度
49.4%
QNH
1019.0hPa
推定現地気圧
994.3hPa
推定海面気圧
1017.8hPa
体感温度
22.1
(無風時)
25.5
HI
28.7
気温前日比
+3.3
体感温度前日比
+3.9
HI前日比
+3.6
水平視程
>10SM
鉛直視程
データなし
雲底高度
No dense clouds
V/I
VMC (VFR)
RVR
No RVR data
卓越風
6kt from 70°
ガスト
No gust
降水
報告なし
その他の天気
報告なし
少しの雲 @ 4500ft AGL / 少しの雲 @ 25000ft AGL

KORD 122351Z 07006KT 10SM FEW045 FEW250 28/17 A3009 RMK AO2 SLP186 T02830167 10300 20278 55001

[PR]

KMSP/MSP  -  ミネアポリス・セントポール

観測日時
2024-07-12 23:53 (UTC) (66分前)
気温
28.9
露点
16.1
湿数
12.8
相対湿度
45.9%
QNH
1016.6hPa
推定現地気圧
986.0hPa
推定海面気圧
1015.0hPa
体感温度
22.1
(無風時)
25.6
HI
29.1
気温前日比
-0.5
体感温度前日比
-0.6
HI前日比
+0.1
水平視程
>10SM
鉛直視程
データなし
雲底高度
No dense clouds
V/I
VMC (VFR)
RVR
No RVR data
卓越風
9kt from 170°
ガスト
No gust
降水
報告なし
その他の天気
報告なし
少しの雲 @ 5500ft AGL

KMSP 122353Z 17009KT 10SM FEW055 29/16 A3002 RMK AO2 SLP160 T02890161 10306 20283 55003

[PR]

KIAH/IAH  -  ヒューストン/ジョージ・ブッシュ・インターコンチネンタル

観測日時
2024-07-12 23:53 (UTC) (66分前)
気温
26.1
露点
23.9
湿数
2.2
相対湿度
87.7%
QNH
1018.6hPa
推定現地気圧
1015.1hPa
推定海面気圧
1018.5hPa
体感温度
26.4
(無風時)
26.4
HI
27.1
気温前日比
-1.7
体感温度前日比
+2
HI前日比
-4.4
水平視程
>10SM
鉛直視程
データなし
雲底高度
17000ft AGL
V/I
VMC (VFR)
RVR
No RVR data
卓越風
静穏
ガスト
No gust
降水
報告なし
その他の天気
報告なし
隙間のある雲 @ 17000ft AGL / 全天を覆う雲 @ 25000ft AGL

KIAH 122353Z 00000KT 10SM BKN170 OVC250 26/24 A3008 RMK AO2 SLP186 60037 T02610239 10317 20222 55001

[PR]

KDFW/DFW  -  ダラス・フォートワース

観測日時
2024-07-12 23:53 (UTC) (66分前)
気温
34.4
露点
19.4
湿数
15
相対湿度
41.4%
QNH
1016.3hPa
推定現地気圧
994.2hPa
推定海面気圧
1014.8hPa
体感温度
27.8
(無風時)
29
HI
36.5
気温前日比
-0.6
体感温度前日比
-0.1
HI前日比
+0.7
水平視程
>10SM
鉛直視程
データなし
雲底高度
No dense clouds
V/I
VMC (VFR)
RVR
No RVR data
卓越風
10kt from 160°
ガスト
18kt
降水
報告なし
その他の天気
報告なし
少しの雲 @ 6500ft AGL / 散在する雲 @ 25000ft AGL

KDFW 122353Z 16010G18KT 10SM FEW065 SCT250 34/19 A3001 RMK AO2 SLP152 TCU DSNT SE-S T03440194 10356 20333 56006

[PR]

KAUS/AUS  -  オースティン・バーグストロム

観測日時
2024-07-12 23:53 (UTC) (66分前)
気温
28.3
露点
21.1
湿数
7.2
相対湿度
65%
QNH
1018.3hPa
推定現地気圧
998.5hPa
推定海面気圧
1017.3hPa
体感温度
22.9
(無風時)
26.6
HI
30.6
気温前日比
-5.6
体感温度前日比
-4.6
HI前日比
-5.8
水平視程
>10SM
鉛直視程
データなし
雲底高度
10000ft AGL
V/I
VMC (VFR)
RVR
No RVR data
卓越風
7kt from 130°
ガスト
No gust
降水
報告なし
その他の天気
報告なし
少しの雲 @ 5500ft AGL / 隙間のある雲 @ 10000ft AGL / 隙間のある雲 @ 15000ft AGL

KAUS 122353Z 13007KT 10SM FEW055 BKN100 BKN150 28/21 A3007 RMK AO2 SLP172 60012 T02830211 10283 20228 58002 $

[PR]

KDEN/DEN  -  デンバー

観測日時
2024-07-12 23:53 (UTC) (66分前)
気温
37.8
露点
0.6
湿数
37.2
相対湿度
9.7%
QNH
1018.6hPa
推定現地気圧
834.1hPa
推定海面気圧
997.3hPa
体感温度
28.1
(無風時)
27.8
HI
34.5
気温前日比
+2.5
体感温度前日比
+1.9
HI前日比
+2.2
水平視程
>10SM
鉛直視程
データなし
雲底高度
No dense clouds
V/I
VMC (VFR)
RVR
No RVR data
卓越風
14kt from 30°
ガスト
18kt
降水
報告なし
その他の天気
報告なし
少しの雲 @ 14000ft AGL / 少しの雲 @ 17000ft AGL

KDEN 122353Z 03014G18KT 10SM FEW140 FEW170 38/01 A3008 RMK AO2 PK WND 05026/2317 SLP084 T03780006 10389 20361 56007

[PR]

KPHX/PHX  -  フェニックス・スカイハーバー

観測日時
2024-07-12 23:51 (UTC) (68分前)
気温
45
露点
7.2
湿数
37.8
相対湿度
10.6%
QNH
1006.4hPa
推定現地気圧
965.7hPa
推定海面気圧
1002.1hPa
体感温度
34.2
(無風時)
31.8
HI
42.4
気温前日比
±0
体感温度前日比
-0.8
HI前日比
-0.3
水平視程
>10SM
鉛直視程
データなし
雲底高度
No dense clouds
V/I
VMC (VFR)
RVR
No RVR data
卓越風
4kt from VRB
ガスト
No gust
降水
報告なし
その他の天気
報告なし
少しの雲 @ 10000ft AGL / 散在する雲 @ 25000ft AGL

KPHX 122351Z VRB04KT 10SM FEW100 SCT250 45/07 A2972 RMK AO2 SLP039 T04500072 10467 20400 56025

[PR]

KTUS/TUS  -  ツーソン

観測日時
2024-07-12 23:53 (UTC) (66分前)
気温
41.7
露点
7.8
湿数
33.9
相対湿度
13.1%
QNH
1011.9hPa
推定現地気圧
918.8hPa
推定海面気圧
1001.9hPa
体感温度
32.2
(無風時)
30.3
HI
39.5
気温前日比
+0.9
体感温度前日比
+0.4
HI前日比
+0.5
水平視程
>10SM
鉛直視程
データなし
雲底高度
No dense clouds
V/I
VMC (VFR)
RVR
No RVR data
卓越風
9kt from 190°
ガスト
No gust
降水
報告なし
その他の天気
報告なし
目立った雲なし

KTUS 122353Z 19009KT 10SM CLR 42/08 A2988 RMK AO2 LTG DSNT W SLP058 T04170078 10428 20361 56022

[PR]

KSFO/SFO  -  サンフランシスコ

観測日時
2024-07-12 23:56 (UTC) (63分前)
気温
17.2
露点
12.2
湿数
5
相対湿度
72.4%
QNH
1009.8hPa
推定現地気圧
1009.3hPa
推定海面気圧
1009.8hPa
体感温度
6.4
(無風時)
18.4
HI
16.9
気温前日比
-6.1
体感温度前日比
-8.1
HI前日比
-6.2
水平視程
>10SM
鉛直視程
データなし
雲底高度
No dense clouds
V/I
VMC (VFR)
RVR
No RVR data
卓越風
21kt from 300°
ガスト
No gust
降水
報告なし
その他の天気
報告なし
少しの雲 @ 400ft AGL

KSFO 122356Z 30021KT 10SM FEW004 17/12 A2982 RMK AO2 PK WND 30031/2342 SLP097 T01720122 10211 20172 57009

[PR]

KLAX/LAX  -  ロサンゼルス

観測日時
2024-07-13 00:30 (UTC) (29分前)
気温
20.6
露点
16.7
湿数
3.9
相対湿度
78.3%
QNH
1010.8hPa
推定現地気圧
1006.1hPa
推定海面気圧
1010.7hPa
体感温度
13.3
(無風時)
21.3
HI
20.8
気温前日比
-0.5
体感温度前日比
+0.1
HI前日比
-0.5
水平視程
>10SM
鉛直視程
データなし
雲底高度
15000ft AGL
V/I
VMC (VFR)
RVR
No RVR data
卓越風
9kt from 280°
ガスト
No gust
降水
報告なし
その他の天気
報告なし
散在する雲 @ 1000ft AGL / 隙間のある雲 @ 15000ft AGL

KLAX 130030Z 28009KT 10SM SCT010 BKN150 21/17 A2985 RMK AO2 T02060167 $

[PR]

KSJC/SJC  -  サンノゼ

観測日時
2024-07-12 23:53 (UTC) (66分前)
気温
29.4
露点
15
湿数
14.4
相対湿度
41.6%
QNH
1009.1hPa
推定現地気圧
1006.8hPa
推定海面気圧
1009.0hPa
体感温度
22.2
(無風時)
25.6
HI
29.2
気温前日比
-6.2
体感温度前日比
-5.5
HI前日比
-5.8
水平視程
9SM
鉛直視程
データなし
雲底高度
No dense clouds
V/I
VMC (VFR)
RVR
No RVR data
卓越風
10kt from 320°
ガスト
No gust
降水
報告なし
その他の天気
報告なし
少しの雲 @ 4000ft AGL

KSJC 122353Z 32010KT 9SM FEW040 29/15 A2980 RMK AO2 SLP090 T02940150 10333 20289 56005

[PR]
33.4msec